Time;durP1;ratioP1;P1;durP2;ratioP2;P2;SDS_P1;SDS_P2;PMS_P1;PMS_P2;Temp;Humidity;BMP_temperature;BMP_pressure;BME280_temperature;BME280_humidity;BME280_pressure;Samples;Min_cycle;Max_cycle;Signal;HPM_P1;HPM_P2
2022/01/21 06:25:54;;;;;;;;;;;21.80;82.40;;;;;;5028877;28;20019;-84
2022/01/21 06:28:22;;;;;;;;;;;21.80;83.20;;;;;;5064951;28;19920;-82
2022/01/21 06:30:49;;;;;;;;;;;21.90;83.60;;;;;;5071957;28;19934;-83
2022/01/21 06:33:15;;;;;;;;;;;21.90;83.20;;;;;;5054025;28;20003;-82
2022/01/21 06:35:42;;;;;;;;;;;21.90;83.20;;;;;;5071508;28;20335;-83
2022/01/21 06:38:08;;;;;;;;;;;22.00;82.30;;;;;;5071905;28;20403;-84
2022/01/21 06:40:35;;;;;;;;;;;22.00;82.50;;;;;;5072339;28;19911;-81
2022/01/21 06:43:03;;;;;;;;;;;21.90;81.70;;;;;;5072031;28;19931;-81
2022/01/21 06:45:29;;;;;;;;;;;22.00;81.80;;;;;;5071513;28;20005;-82
2022/01/21 06:47:59;;;;;;;;;;;22.00;81.60;;;;;;5071405;28;20276;-82
2022/01/21 06:50:26;;;;;;;;;;;22.00;80.50;;;;;;5071688;28;20006;-85
2022/01/21 06:52:52;;;;;;;;;;;22.00;80.50;;;;;;5071380;28;19908;-81
2022/01/21 06:55:19;;;;;;;;;;;22.00;80.20;;;;;;5053763;28;19908;-82
2022/01/21 06:57:45;;;;;;;;;;;22.00;80.30;;;;;;5071444;28;19944;-80
2022/01/21 07:00:13;;;;;;;;;;;22.00;80.40;;;;;;5071882;28;19912;-81
2022/01/21 07:02:40;;;;;;;;;;;22.00;79.60;;;;;;5071586;28;19916;-82
2022/01/21 07:05:07;;;;;;;;;;;21.90;80.10;;;;;;5054057;28;19991;-82
2022/01/21 07:07:33;;;;;;;;;;;21.90;79.80;;;;;;5052972;28;19908;-82
2022/01/21 07:10:01;;;;;;;;;;;21.90;79.70;;;;;;5071075;28;19995;-83
2022/01/21 07:12:27;;;;;;;;;;;21.80;79.30;;;;;;5052998;28;20265;-84
2022/01/21 07:14:54;;;;;;;;;;;21.90;79.10;;;;;;5071928;28;19995;-85
2022/01/21 07:17:21;;;;;;;;;;;21.90;78.60;;;;;;5053982;28;19954;-84
2022/01/21 07:19:47;;;;;;;;;;;21.80;77.80;;;;;;5053229;28;19908;-84
2022/01/21 07:22:14;;;;;;;;;;;21.80;77.60;;;;;;5070915;28;19962;-83
2022/01/21 07:24:40;;;;;;;;;;;21.90;77.80;;;;;;5053175;28;19931;-84
2022/01/21 18:39:56;;;;;;;;;;;18.80;89.10;;;;;;5049927;28;19967;-89
2022/01/21 18:42:30;;;;;;;;;;;18.90;89.30;;;;;;5018987;28;19956;-88
2022/01/21 18:45:06;;;;;;;;;;;18.90;89.50;;;;;;5032751;28;19909;-90
2022/01/21 18:47:39;;;;;;;;;;;18.90;89.40;;;;;;5047009;28;19917;-91
2022/01/21 18:50:07;;;;;;;;;;;18.90;89.30;;;;;;5052599;28;20003;-83
2022/01/21 18:52:34;;;;;;;;;;;18.90;89.20;;;;;;5038342;28;19928;-90
2022/01/21 18:55:00;;;;;;;;;;;19.00;89.40;;;;;;5052301;28;19916;-92
2022/01/21 18:57:27;;;;;;;;;;;19.00;89.40;;;;;;5018557;28;19952;-88
2022/01/21 18:59:53;;;;;;;;;;;19.00;89.40;;;;;;5052227;28;20047;-89
2022/01/21 19:02:23;;;;;;;;;;;19.00;89.40;;;;;;5052437;28;19909;-87
2022/01/21 19:04:50;;;;;;;;;;;19.00;89.60;;;;;;5050432;28;19908;-92
2022/01/21 19:07:21;;;;;;;;;;;19.00;89.40;;;;;;5048717;28;19916;-88
2022/01/21 19:09:48;;;;;;;;;;;19.00;89.60;;;;;;5033191;28;19905;-86
2022/01/21 19:12:15;;;;;;;;;;;19.00;89.70;;;;;;5031543;28;19909;-87
2022/01/21 19:14:41;;;;;;;;;;;19.00;89.60;;;;;;5031949;28;19905;-81
2022/01/21 19:17:08;;;;;;;;;;;19.00;89.50;;;;;;5032062;28;20278;-84
2022/01/21 19:19:34;;;;;;;;;;;19.00;89.50;;;;;;5037284;28;20627;-83
2022/01/21 19:22:06;;;;;;;;;;;19.00;89.50;;;;;;5019893;28;19936;-83
2022/01/21 19:24:51;;;;;;;;;;;19.00;89.60;;;;;;5031587;28;20350;-86
2022/01/21 19:27:18;;;;;;;;;;;19.10;89.30;;;;;;5014848;28;19917;-84
2022/01/21 19:29:45;;;;;;;;;;;19.10;89.40;;;;;;5047607;28;19912;-85
2022/01/21 19:32:12;;;;;;;;;;;19.10;89.30;;;;;;5042845;28;19909;-81
2022/01/21 19:34:40;;;;;;;;;;;19.10;88.80;;;;;;5044656;28;19948;-81
2022/01/21 19:37:07;;;;;;;;;;;19.10;88.80;;;;;;5051804;28;20132;-81
2022/01/21 19:39:33;;;;;;;;;;;19.10;88.90;;;;;;5019861;28;19999;-82
